Bloomsburg, Pennsylvania
Current Conditions -  °F | °C
As of 10:35 AM on Thursday 30 Oct 2014 (Local Time) from KHZL Reporting Station
Broken Clouds Broken Clouds  
Wind Chill: 46°   Ceiling: 2800
Heat Index: 46°   Visibility: 10mi
Dew Point: 36°   Wind: 3mph
Humidity: 66%   Direction: 300°WNW
Pressure: 30.05"   Gusts: NA
Location:  41°N, 76.45°W
Report Text: KHZL 301435Z AUTO 30003KT 10SM BKN028 08/02 A3005 RMK AO2
Loading
Personal Weather Stations






























Interactive Weather Map New forecast layout! Learn more

10-Day Weather Forecast

Advertisements
Track Severe Weather on mobile